Crownsville, Maryland
Current Conditions -  °F | °C
As of 12:54 AM on Sunday 23 Nov 2014 (Local Time) from KNAK Reporting Station
Overcast Overcast  
Wind Chill: 42°   Ceiling: 12000
Heat Index: 45°   Visibility: 10mi
Dew Point: 17°   Wind: 6mph
Humidity: 33%   Direction: 190°S
Pressure: 30.24"   Gusts: NA
Location:  39.03°N, 76.6°W
Report Text: KNAK 230554Z AUTO 19005KT 10SM OVC120 07/M08 A3024 RMK AO2 SLP242 T00721083 10072 20050 58015
Loading
Personal Weather Stations






























Interactive Weather Map New forecast layout! Learn more

10-Day Weather Forecast

Advertisements
Track Severe Weather on mobile